Latest Weather Observations for Marree Airport

IDS60801

Issued at 11:05 am CST Friday 1 August 2014 (issued every 30 minutes, with the page automatically refreshed every 10 minutes)

About weather observations | Map of weather stations | Latest weather observations for SA | Other Formats
Station Details ID: 017126 Name: MARREE AERO Lat: -29.66 Lon: 138.07 Height: 50.0 m
Data from the previous 72 hours. | See also: Recent months for locations in South Australia
Date/Time
CST
Temp
°C
App
Temp
°C
Dew
Point
Rel
Hum
%
Delta-T
°C
Wind Press
QNH
hPa
Press
MSL
hPa
Rain
since 9 am
mm
Dir
 
Spd
km/h
Gust
km/h
Spd
kts
Gust
kts
01/11:00am 14.2 6.0 2.5 45 5.2 SW 35 46 19 25 1024.8 - 0.0
01/10:30am 14.0 5.8 2.9 47 4.9 SW 35 46 19 25 1024.6 - 0.0
01/10:00am 13.2 5.7 3.3 51 4.4 SW 32 43 17 23 1024.5 - 0.0
01/09:30am 12.3 5.3 4.0 57 3.7 SW 30 39 16 21 1024.0 - 0.0
01/09:00am 11.5 4.9 4.3 61 3.2 SW 28 37 15 20 1023.6 1023.6 0.0
01/08:30am 10.0 5.1 4.0 66 2.7 WSW 19 24 10 13 1023.3 - 0.0
01/08:00am 8.1 3.8 3.4 72 2.0 W 15 17 8 9 1022.8 - 0.0
01/07:30am 6.4 1.9 2.3 75 1.7 W 15 17 8 9 1022.3 - 0.0
01/07:00am 6.5 2.0 2.2 74 1.8 W 15 17 8 9 1022.0 - 0.0
01/06:30am 7.7 3.4 3.0 72 2.0 SW 15 17 8 9 1021.7 - 0.0
01/06:00am 8.6 3.4 3.4 70 2.2 SW 20 24 11 13 1021.2 1021.2 0.0
01/05:30am 8.7 4.1 3.5 70 2.2 SW 17 20 9 11 1020.6 - 0.0
01/05:00am 9.0 4.4 3.6 69 2.3 SW 17 20 9 11 1020.1 - 0.0
01/04:30am 9.6 4.4 3.8 67 2.5 SW 20 26 11 14 1019.9 - 0.0
01/04:00am 10.1 5.0 4.0 66 2.7 SW 20 26 11 14 1019.5 - 0.0
01/03:30am 10.7 4.8 3.7 62 3.1 SW 24 30 13 16 1019.2 - 0.0
01/03:00am 11.4 3.9 3.7 59 3.4 SSW 32 39 17 21 1019.0 1019.0 0.0
01/02:30am 11.9 3.9 3.9 58 3.6 SSW 35 46 19 25 1018.6 - 0.0
01/02:00am 12.1 4.9 5.0 62 3.3 SW 32 41 17 22 1018.4 - 0.0
01/01:30am 12.1 5.7 5.3 63 3.1 SW 28 37 15 20 1018.3 - 0.0
01/01:00am 12.4 5.1 5.6 63 3.2 SW 33 43 18 23 1018.1 - 0.0
01/12:30am 13.0 5.1 6.1 63 3.3 SSW 37 48 20 26 1017.7 - 0.0
01/12:00am 13.6 6.4 7.6 67 2.9 SW 35 46 19 25 1017.4 1017.4 0.0
 
Date/Time
CST
Temp
°C
App
Temp
°C
Dew
Point
Rel
Hum
%
Delta-T
°C
Wind Press
QNH
hPa
Press
MSL
hPa
Rain
since 9 am
mm
Dir
 
Spd
km/h
Gust
km/h
Spd
kts
Gust
kts
31/11:30pm 13.9 7.1 7.9 67 3.0 SSW 33 46 18 25 1017.1 - 0.0
31/11:00pm 14.4 6.9 7.9 65 3.2 SSW 37 48 20 26 1016.7 - 0.0
31/10:30pm 14.8 6.7 8.5 66 3.2 SSW 41 59 22 32 1016.3 - 0.0
31/10:22pm 15.0 6.9 8.5 65 3.3 SSW 41 59 22 32 1016.2 - 0.0
31/10:00pm 15.7 7.7 8.9 64 3.5 SSW 41 57 22 31 1015.8 - 0.0
31/09:40pm 16.3 8.3 9.0 62 3.8 SSW 41 59 22 32 1015.8 - 0.0
31/09:30pm 16.8 7.8 9.0 60 4.0 SSW 46 59 25 32 1015.5 - 0.0
31/09:03pm 18.5 9.6 3.2 36 7.1 SW 39 52 21 28 1015.0 - 0.0
31/09:00pm 18.1 12.4 0.7 31 7.7 WSW 20 30 11 16 1014.9 1015.0 0.0
31/08:30pm 19.0 12.1 0.1 28 8.3 WSW 26 32 14 17 1014.5 - 0.0
31/08:00pm 19.8 12.8 -0.2 26 8.8 WSW 26 33 14 18 1014.2 - 0.0
31/07:30pm 19.8 13.1 -0.8 25 9.0 WSW 24 30 13 16 1013.6 - 0.0
31/07:00pm 20.7 13.6 -1.2 23 9.5 WSW 26 32 14 17 1013.1 - 0.0
31/06:30pm 21.6 14.5 -1.6 21 10.1 W 26 33 14 18 1012.5 - 0.0
31/06:00pm 22.8 15.1 -2.7 18 11.0 W 28 33 15 18 1011.9 1011.9 0.0
31/05:30pm 24.0 15.9 -3.3 16 11.7 W 30 39 16 21 1011.7 - 0.0
31/05:00pm 25.1 16.5 -4.2 14 12.5 W 32 43 17 23 1011.7 - 0.0
31/04:30pm 25.9 17.9 -2.7 15 12.6 W 30 43 16 23 1011.6 - 0.0
31/04:00pm 26.0 16.4 -1.7 16 12.5 W 39 52 21 28 1011.8 - 0.0
31/03:30pm 26.0 15.7 -0.9 17 12.3 WNW 43 52 23 28 1011.9 - 0.0
31/03:15pm 26.0 16.4 -1.7 16 12.5 WNW 39 57 21 31 1012.1 - 0.0
31/03:00pm 26.3 16.2 -2.4 15 12.8 WNW 41 52 22 28 1012.2 1012.2 0.0
31/02:37pm 26.8 16.6 -2.9 14 13.2 WNW 41 59 22 32 1012.3 - 0.0
31/02:30pm 26.2 15.5 -2.4 15 12.7 WNW 44 57 24 31 1012.4 - 0.0
31/02:00pm 26.1 15.9 -3.5 14 12.9 NW 41 56 22 30 1012.6 - 0.0
31/01:30pm 25.7 16.3 -2.8 15 12.5 NW 37 48 20 26 1013.0 - 0.0
31/01:00pm 25.7 15.9 -2.8 15 12.5 NW 39 50 21 27 1013.7 - 0.0
31/12:30pm 24.9 14.7 -3.5 15 12.3 WNW 41 56 22 30 1014.7 - 0.0
31/12:00pm 23.8 13.9 -3.5 16 11.7 WNW 39 56 21 30 1015.4 1015.5 0.0
31/11:30am 23.1 14.1 -2.5 18 11.1 NW 35 46 19 25 1015.9 - 0.0
31/11:00am 21.5 12.9 -2.4 20 10.2 NW 33 44 18 24 1016.3 - 0.0
31/10:30am 20.1 11.2 -2.3 22 9.5 NW 35 43 19 23 1016.7 - 0.0
31/10:00am 19.3 10.4 -2.3 23 9.1 NW 35 43 19 23 1017.0 - 0.0
31/09:30am 16.7 10.8 -0.9 30 7.4 NNW 20 26 11 14 1017.1 - 0.0
31/09:00am 13.2 9.1 -0.4 39 5.6 NNW 11 17 6 9 1017.4 1017.5 0.0
31/08:30am 9.7 7.2 -1.3 46 4.3 SW 2 7 1 4 1017.4 - 0.0
31/08:00am 5.9 2.1 -3.4 51 3.3 SSW 7 9 4 5 1017.3 - 0.0
31/07:30am 4.5 1.2 -4.2 53 3.0 ESE 4 6 2 3 1017.0 - 0.0
31/07:00am 4.4 0.6 -3.6 56 2.8 ESE 7 9 4 5 1016.7 - 0.0
31/06:30am 4.3 0.6 -4.2 54 2.9 SSE 6 7 3 4 1016.8 - 0.0
31/06:00am 5.3 2.2 -3.0 55 2.9 SSE 4 6 2 3 1016.8 1016.9 0.0
31/05:30am 5.0 0.8 -3.5 54 3.0 SSE 9 11 5 6 1016.9 - 0.0
31/05:00am 4.8 1.0 -3.7 54 2.9 SE 7 9 4 5 1016.8 - 0.0
31/04:30am 4.5 1.5 -5.0 50 3.2 WNW 2 6 1 3 1016.7 - 0.0
31/04:00am 6.0 2.4 -3.4 51 3.3 SSW 6 7 3 4 1017.2 - 0.0
31/03:30am 5.6 3.0 -5.1 46 3.6 CALM 0 0 0 0 1017.2 - 0.0
31/03:00am 7.3 3.7 -1.9 52 3.4 S 7 9 4 5 1017.6 1017.7 0.0
31/02:30am 5.9 3.3 -5.1 45 3.7 CALM 0 0 0 0 1017.6 - 0.0
31/02:00am 6.7 4.3 -3.5 48 3.6 CALM 0 0 0 0 1017.7 - 0.0
31/01:30am 7.6 4.1 -3.0 47 3.9 ENE 6 6 3 3 1017.8 - 0.0
31/01:00am 8.0 4.2 -4.1 42 4.3 N 7 9 4 5 1018.2 - 0.0
31/12:30am 8.2 5.8 -3.0 45 4.1 CALM 0 0 0 0 1018.3 - 0.0
31/12:00am 9.5 7.3 -1.8 45 4.3 CALM 0 0 0 0 1018.6 1018.7 0.0
 
Date/Time
CST
Temp
°C
App
Temp
°C
Dew
Point
Rel
Hum
%
Delta-T
°C
Wind Press
QNH
hPa
Press
MSL
hPa
Rain
since 9 am
mm
Dir
 
Spd
km/h
Gust
km/h
Spd
kts
Gust
kts
30/11:30pm 8.6 5.0 -3.3 43 4.4 N 6 7 3 4 1018.7 - 0.0
30/11:00pm 10.3 6.3 -2.0 42 4.7 N 9 11 5 6 1018.9 - 0.0
30/10:30pm 10.8 6.8 -2.2 40 5.0 N 9 13 5 7 1019.2 - 0.0
30/10:00pm 11.5 6.8 -2.0 39 5.3 N 13 13 7 7 1019.3 - 0.0
30/09:30pm 12.1 7.8 -1.8 38 5.5 N 11 13 6 7 1019.2 - 0.0
30/09:00pm 13.3 8.7 -1.4 36 5.9 N 13 13 7 7 1019.1 1019.2 0.0
30/08:30pm 13.6 9.4 -1.2 36 6.0 NNW 11 15 6 8 1019.4 - 0.0
30/08:00pm 13.9 8.9 -1.3 35 6.2 NNW 15 17 8 9 1019.6 - 0.0
30/07:30pm 14.7 10.1 -1.0 34 6.5 NW 13 15 7 8 1019.6 - 0.0
30/07:00pm 15.7 10.7 -0.9 32 6.9 NW 15 17 8 9 1019.5 - 0.0
30/06:30pm 17.4 12.1 -0.3 30 7.6 NW 17 17 9 9 1019.4 - 0.0
30/06:00pm 18.9 14.1 0.0 28 8.3 NW 15 19 8 10 1019.3 1019.4 0.0
30/05:30pm 21.2 16.0 0.4 25 9.4 NW 17 20 9 11 1019.0 - 0.0
30/05:00pm 22.5 17.0 0.9 24 9.9 NW 19 26 10 14 1019.0 - 0.0
30/04:30pm 23.1 18.5 1.4 24 10.1 NW 15 22 8 12 1019.1 - 0.0
30/04:00pm 23.5 18.1 1.2 23 10.4 NW 19 28 10 15 1019.3 - 0.0
30/03:30pm 24.0 19.7 1.0 22 10.7 WNW 13 17 7 9 1019.4 - 0.0
30/03:00pm 23.7 18.2 0.7 22 10.6 WNW 19 24 10 13 1019.7 1019.8 0.0
30/02:30pm 23.6 19.1 1.9 24 10.3 WNW 15 22 8 12 1019.9 - 0.0
30/02:00pm 23.4 18.7 1.1 23 10.4 W 15 20 8 11 1020.3 - 0.0
30/01:30pm 23.0 18.4 1.4 24 10.1 WNW 15 24 8 13 1020.7 - 0.0
30/01:00pm 22.5 18.8 2.1 26 9.6 WNW 11 20 6 11 1021.3 - 0.0
30/12:30pm 21.9 18.5 2.1 27 9.3 W 9 15 5 8 1021.7 - 0.0
30/12:00pm 21.7 18.0 2.4 28 9.0 N 11 17 6 9 1022.3 1022.4 0.0
30/11:30am 20.6 17.2 2.0 29 8.6 N 9 13 5 7 1023.0 - 0.0
30/11:00am 19.7 16.9 2.1 31 8.1 N 6 7 3 4 1023.7 - 0.0
30/10:30am 18.3 16.2 1.8 33 7.5 ENE 2 6 1 3 1023.9 - 0.0
30/10:00am 16.0 14.2 1.0 36 6.5 CALM 0 6 0 3 1024.2 - 0.0
30/09:30am 13.4 10.3 1.1 43 5.3 ESE 7 9 4 5 1024.3 - 0.0
30/09:00am 11.1 8.1 0.5 48 4.3 SE 6 7 3 4 1024.0 1024.1 0.0
30/08:30am 8.7 5.4 -0.1 54 3.5 SSE 7 9 4 5 1023.9 - 0.0
30/08:00am 6.3 2.8 -1.3 58 2.8 SE 7 11 4 6 1023.8 - 0.0
30/07:30am 4.4 0.3 -2.9 59 2.6 SE 9 11 5 6 1023.6 - 0.0
30/07:00am 4.1 -0.7 -2.5 62 2.3 SSE 13 17 7 9 1023.4 - 0.0
30/06:30am 4.3 0.6 -2.8 60 2.5 S 7 9 4 5 1022.9 - 0.0
30/06:00am 4.6 1.1 -2.7 59 2.6 SSE 6 7 3 4 1022.6 1022.7 0.0
30/05:30am 4.8 1.1 -2.7 58 2.7 SSE 7 9 4 5 1022.6 - 0.0
30/05:00am 5.5 2.1 -2.3 57 2.8 SSE 6 6 3 3 1022.4 - 0.0
30/04:30am 5.6 2.1 -3.0 54 3.1 SSE 6 7 3 4 1022.3 - 0.0
30/04:00am 5.4 3.0 -3.4 53 3.1 CALM 0 0 0 0 1022.3 - 0.0
30/03:30am 6.3 4.0 -2.3 54 3.1 CALM 0 0 0 0 1022.3 - 0.0
30/03:00am 6.6 4.3 -2.5 52 3.3 CALM 0 0 0 0 1022.3 1022.4 0.0
30/02:30am 6.9 4.5 -2.8 50 3.5 CALM 0 0 0 0 1022.5 - 0.0
30/02:00am 7.1 4.7 -2.9 49 3.6 CALM 0 0 0 0 1022.6 - 0.0
30/01:30am 8.1 5.8 -2.0 49 3.8 CALM 0 4 0 2 1022.7 - 0.0
30/01:00am 10.0 7.1 1.4 55 3.6 W 6 7 3 4 1022.9 - 0.0
30/12:30am 9.5 6.3 -0.4 50 3.9 W 6 7 3 4 1022.9 - 0.0
30/12:00am 10.0 7.6 -0.2 49 4.1 NNE 2 7 1 4 1022.7 1022.8 0.0
 
Date/Time
CST
Temp
°C
App
Temp
°C
Dew
Point
Rel
Hum
%
Delta-T
°C
Wind Press
QNH
hPa
Press
MSL
hPa
Rain
since 9 am
mm
Dir
 
Spd
km/h
Gust
km/h
Spd
kts
Gust
kts
29/11:30pm 10.5 7.4 0.3 49 4.2 NNE 6 7 3 4 1022.8 - 0.0
29/11:00pm 10.8 8.7 1.4 52 3.9 WSW 2 6 1 3 1022.8 - 0.0
29/10:30pm 11.0 7.8 1.0 50 4.2 SW 7 11 4 6 1022.9 - 0.0
29/10:00pm 12.2 9.2 1.8 49 4.5 SSW 7 9 4 5 1022.9 - 0.0
29/09:30pm 12.4 8.9 1.4 47 4.7 SW 9 11 5 6 1022.9 - 0.0
29/09:00pm 13.0 9.5 1.4 45 4.9 SW 9 11 5 6 1022.8 1022.9 0.0
29/08:30pm 13.6 9.4 1.9 45 5.1 WSW 13 13 7 7 1022.6 - 0.0
29/08:00pm 14.8 11.0 2.0 42 5.6 WSW 11 13 6 7 1022.2 - 0.0
29/07:30pm 16.2 13.2 2.2 39 6.3 WSW 7 9 4 5 1021.9 - 0.0
29/07:00pm 17.6 14.3 2.4 36 6.9 WSW 9 11 5 6 1021.6 - 0.0
29/06:30pm 18.3 14.0 3.0 36 7.1 WSW 15 15 8 8 1021.4 - 0.0
29/06:00pm 20.0 16.0 2.8 32 8.0 WSW 13 15 7 8 1021.4 1021.5 0.0
29/05:30pm 22.1 17.0 2.8 28 9.2 WSW 19 24 10 13 1021.0 - 0.0
29/05:00pm 23.6 18.3 3.0 26 9.9 WSW 20 26 11 14 1020.9 - 0.0
29/04:30pm 24.2 18.8 2.4 24 10.4 WSW 20 30 11 16 1020.6 - 0.0
29/04:00pm 24.5 18.6 2.0 23 10.7 W 22 30 12 16 1020.6 - 0.0
29/03:30pm 24.8 18.9 1.7 22 11.0 W 22 32 12 17 1020.5 - 0.0
29/03:00pm 24.9 19.5 1.1 21 11.2 WSW 19 30 10 16 1020.5 1020.6 0.0
29/02:30pm 25.1 20.7 2.5 23 10.9 W 15 20 8 11 1020.6 - 0.0
29/02:00pm 24.6 19.1 2.1 23 10.8 W 20 24 11 13 1020.8 - 0.0
29/01:30pm 24.0 21.1 2.8 25 10.2 ESE 7 11 4 6 1021.0 - 0.0
29/01:00pm 23.2 19.9 2.7 26 9.8 S 9 19 5 10 1021.5 - 0.0
29/12:30pm 22.1 18.3 1.7 26 9.5 SSE 11 19 6 10 1022.0 - 0.0
29/12:00pm 21.1 16.8 0.9 26 9.1 SSE 13 19 7 10 1022.5 1022.6 0.0
29/11:30am 20.1 16.0 0.0 26 8.9 SE 11 17 6 9 1022.9 - 0.0

Other Formats:

Comma delimited format used in spreadsheet applications
http://www.bom.gov.au/fwo/IDS60801/IDS60801.95480.axf

JavaScript Object Notation format (JSON) in row-major order
http://www.bom.gov.au/fwo/IDS60801/IDS60801.95480.json